sensor_id;sensor_type;location;lat;lon;timestamp;P1;durP1;ratioP1;P2;durP2;ratioP2
3341;SDS011;1684;50.748;6.154;2023-04-16T00:01:20;2.50;;;1.43;;
3341;SDS011;1684;50.748;6.154;2023-04-16T00:03:49;2.23;;;1.20;;
3341;SDS011;1684;50.748;6.154;2023-04-16T00:06:17;2.37;;;1.30;;
3341;SDS011;1684;50.748;6.154;2023-04-16T00:08:45;1.60;;;0.80;;
3341;SDS011;1684;50.748;6.154;2023-04-16T00:11:14;3.10;;;1.60;;
3341;SDS011;1684;50.748;6.154;2023-04-16T00:13:42;4.33;;;1.73;;
3341;SDS011;1684;50.748;6.154;2023-04-16T00:16:12;4.60;;;1.60;;
3341;SDS011;1684;50.748;6.154;2023-04-16T00:18:40;1.67;;;0.87;;
3341;SDS011;1684;50.748;6.154;2023-04-16T00:21:08;2.83;;;1.10;;
3341;SDS011;1684;50.748;6.154;2023-04-16T00:23:37;3.03;;;1.50;;
3341;SDS011;1684;50.748;6.154;2023-04-16T00:26:05;3.30;;;1.30;;
3341;SDS011;1684;50.748;6.154;2023-04-16T00:28:33;4.30;;;2.10;;
3341;SDS011;1684;50.748;6.154;2023-04-16T00:31:01;3.20;;;1.90;;
3341;SDS011;1684;50.748;6.154;2023-04-16T00:33:31;5.50;;;1.60;;
3341;SDS011;1684;50.748;6.154;2023-04-16T00:35:59;2.20;;;1.40;;
3341;SDS011;1684;50.748;6.154;2023-04-16T00:38:28;3.20;;;1.87;;
3341;SDS011;1684;50.748;6.154;2023-04-16T00:40:57;3.33;;;2.10;;
3341;SDS011;1684;50.748;6.154;2023-04-16T00:43:25;3.70;;;1.47;;
3341;SDS011;1684;50.748;6.154;2023-04-16T00:45:55;2.37;;;1.30;;
3341;SDS011;1684;50.748;6.154;2023-04-16T00:48:23;2.10;;;1.23;;
3341;SDS011;1684;50.748;6.154;2023-04-16T00:50:54;5.43;;;1.90;;
3341;SDS011;1684;50.748;6.154;2023-04-16T00:53:23;3.67;;;2.00;;
3341;SDS011;1684;50.748;6.154;2023-04-16T00:55:52;3.97;;;1.87;;
3341;SDS011;1684;50.748;6.154;2023-04-16T00:58:21;3.27;;;1.83;;
3341;SDS011;1684;50.748;6.154;2023-04-16T01:00:50;4.03;;;2.30;;
3341;SDS011;1684;50.748;6.154;2023-04-16T01:03:18;2.90;;;2.23;;
3341;SDS011;1684;50.748;6.154;2023-04-16T01:05:46;2.50;;;1.13;;
3341;SDS011;1684;50.748;6.154;2023-04-16T01:08:17;4.53;;;1.67;;
3341;SDS011;1684;50.748;6.154;2023-04-16T01:10:46;4.93;;;2.07;;
3341;SDS011;1684;50.748;6.154;2023-04-16T01:13:14;4.00;;;2.33;;
3341;SDS011;1684;50.748;6.154;2023-04-16T01:15:42;3.80;;;1.90;;
3341;SDS011;1684;50.748;6.154;2023-04-16T01:18:14;6.33;;;3.00;;
3341;SDS011;1684;50.748;6.154;2023-04-16T01:20:43;3.67;;;2.10;;
3341;SDS011;1684;50.748;6.154;2023-04-16T01:23:12;4.93;;;2.20;;
3341;SDS011;1684;50.748;6.154;2023-04-16T01:25:40;2.30;;;1.50;;
3341;SDS011;1684;50.748;6.154;2023-04-16T01:28:08;3.80;;;2.70;;
3341;SDS011;1684;50.748;6.154;2023-04-16T01:30:37;4.07;;;2.20;;
3341;SDS011;1684;50.748;6.154;2023-04-16T01:33:05;3.03;;;1.80;;
3341;SDS011;1684;50.748;6.154;2023-04-16T01:35:34;3.50;;;2.70;;
3341;SDS011;1684;50.748;6.154;2023-04-16T01:38:03;4.73;;;2.90;;
3341;SDS011;1684;50.748;6.154;2023-04-16T01:40:32;6.53;;;2.90;;
3341;SDS011;1684;50.748;6.154;2023-04-16T01:43:01;3.87;;;1.97;;
3341;SDS011;1684;50.748;6.154;2023-04-16T01:45:29;3.33;;;2.80;;
3341;SDS011;1684;50.748;6.154;2023-04-16T01:47:58;4.97;;;3.30;;
3341;SDS011;1684;50.748;6.154;2023-04-16T01:50:27;6.70;;;3.40;;
3341;SDS011;1684;50.748;6.154;2023-04-16T01:52:56;10.03;;;4.63;;
3341;SDS011;1684;50.748;6.154;2023-04-16T01:55:26;4.33;;;1.57;;
3341;SDS011;1684;50.748;6.154;2023-04-16T01:57:54;7.80;;;3.27;;
3341;SDS011;1684;50.748;6.154;2023-04-16T02:00:22;3.40;;;2.10;;
3341;SDS011;1684;50.748;6.154;2023-04-16T02:02:51;6.77;;;2.93;;
3341;SDS011;1684;50.748;6.154;2023-04-16T02:05:19;6.50;;;4.00;;
3341;SDS011;1684;50.748;6.154;2023-04-16T02:07:47;8.43;;;4.30;;
3341;SDS011;1684;50.748;6.154;2023-04-16T02:10:17;7.20;;;3.80;;
3341;SDS011;1684;50.748;6.154;2023-04-16T02:12:47;7.20;;;3.60;;
3341;SDS011;1684;50.748;6.154;2023-04-16T02:15:16;4.97;;;2.73;;
3341;SDS011;1684;50.748;6.154;2023-04-16T02:17:44;4.73;;;3.50;;
3341;SDS011;1684;50.748;6.154;2023-04-16T02:20:14;4.13;;;3.67;;
3341;SDS011;1684;50.748;6.154;2023-04-16T02:22:43;7.70;;;3.53;;
3341;SDS011;1684;50.748;6.154;2023-04-16T02:25:11;4.80;;;3.87;;
3341;SDS011;1684;50.748;6.154;2023-04-16T02:27:40;4.03;;;2.10;;
3341;SDS011;1684;50.748;6.154;2023-04-16T02:30:10;4.00;;;3.27;;
3341;SDS011;1684;50.748;6.154;2023-04-16T02:32:38;4.10;;;2.50;;
3341;SDS011;1684;50.748;6.154;2023-04-16T02:35:06;7.47;;;3.93;;
3341;SDS011;1684;50.748;6.154;2023-04-16T02:37:35;5.27;;;3.37;;
3341;SDS011;1684;50.748;6.154;2023-04-16T02:40:06;7.20;;;2.70;;
3341;SDS011;1684;50.748;6.154;2023-04-16T02:42:34;11.53;;;3.40;;
3341;SDS011;1684;50.748;6.154;2023-04-16T02:45:03;6.57;;;3.70;;
3341;SDS011;1684;50.748;6.154;2023-04-16T02:47:32;7.27;;;4.10;;
3341;SDS011;1684;50.748;6.154;2023-04-16T02:50:01;6.20;;;4.33;;
3341;SDS011;1684;50.748;6.154;2023-04-16T02:52:29;5.33;;;3.27;;
3341;SDS011;1684;50.748;6.154;2023-04-16T02:54:58;4.43;;;3.10;;
3341;SDS011;1684;50.748;6.154;2023-04-16T02:57:26;6.53;;;4.87;;
3341;SDS011;1684;50.748;6.154;2023-04-16T02:59:54;3.80;;;2.63;;
3341;SDS011;1684;50.748;6.154;2023-04-16T03:02:22;4.10;;;3.50;;
3341;SDS011;1684;50.748;6.154;2023-04-16T03:04:53;5.27;;;3.23;;
3341;SDS011;1684;50.748;6.154;2023-04-16T03:07:21;5.73;;;3.20;;
3341;SDS011;1684;50.748;6.154;2023-04-16T03:09:49;6.30;;;4.23;;
3341;SDS011;1684;50.748;6.154;2023-04-16T03:12:18;6.70;;;4.90;;
3341;SDS011;1684;50.748;6.154;2023-04-16T03:14:46;6.50;;;2.73;;
3341;SDS011;1684;50.748;6.154;2023-04-16T03:17:14;5.30;;;3.60;;
3341;SDS011;1684;50.748;6.154;2023-04-16T03:19:42;8.33;;;3.70;;
3341;SDS011;1684;50.748;6.154;2023-04-16T03:22:12;5.70;;;4.10;;
3341;SDS011;1684;50.748;6.154;2023-04-16T03:24:41;8.70;;;5.27;;
3341;SDS011;1684;50.748;6.154;2023-04-16T03:27:09;5.27;;;4.00;;
3341;SDS011;1684;50.748;6.154;2023-04-16T03:29:37;6.30;;;4.77;;
3341;SDS011;1684;50.748;6.154;2023-04-16T03:32:06;6.33;;;3.77;;
3341;SDS011;1684;50.748;6.154;2023-04-16T03:34:34;6.47;;;3.70;;
3341;SDS011;1684;50.748;6.154;2023-04-16T03:37:03;4.63;;;3.43;;
3341;SDS011;1684;50.748;6.154;2023-04-16T03:39:33;7.63;;;5.17;;
3341;SDS011;1684;50.748;6.154;2023-04-16T03:42:01;6.70;;;3.97;;
3341;SDS011;1684;50.748;6.154;2023-04-16T03:44:29;7.50;;;4.00;;
3341;SDS011;1684;50.748;6.154;2023-04-16T03:46:58;7.00;;;4.83;;
3341;SDS011;1684;50.748;6.154;2023-04-16T03:49:26;8.10;;;3.40;;
3341;SDS011;1684;50.748;6.154;2023-04-16T03:51:54;5.07;;;4.10;;
3341;SDS011;1684;50.748;6.154;2023-04-16T03:54:22;8.50;;;5.50;;
3341;SDS011;1684;50.748;6.154;2023-04-16T03:56:52;8.10;;;4.60;;
3341;SDS011;1684;50.748;6.154;2023-04-16T03:59:22;5.70;;;3.50;;
3341;SDS011;1684;50.748;6.154;2023-04-16T04:01:50;10.30;;;6.43;;
3341;SDS011;1684;50.748;6.154;2023-04-16T04:04:19;5.83;;;4.40;;
3341;SDS011;1684;50.748;6.154;2023-04-16T04:06:47;6.30;;;3.90;;
3341;SDS011;1684;50.748;6.154;2023-04-16T04:09:15;6.30;;;4.20;;
3341;SDS011;1684;50.748;6.154;2023-04-16T04:11:43;12.23;;;6.50;;
3341;SDS011;1684;50.748;6.154;2023-04-16T04:14:13;11.40;;;5.80;;
3341;SDS011;1684;50.748;6.154;2023-04-16T04:16:41;7.10;;;4.43;;
3341;SDS011;1684;50.748;6.154;2023-04-16T04:19:09;5.00;;;4.07;;
3341;SDS011;1684;50.748;6.154;2023-04-16T04:21:38;7.53;;;4.67;;
3341;SDS011;1684;50.748;6.154;2023-04-16T04:24:06;5.20;;;4.40;;
3341;SDS011;1684;50.748;6.154;2023-04-16T04:26:34;6.80;;;4.07;;
3341;SDS011;1684;50.748;6.154;2023-04-16T04:29:02;5.00;;;3.90;;
3341;SDS011;1684;50.748;6.154;2023-04-16T04:31:32;7.50;;;4.27;;
3341;SDS011;1684;50.748;6.154;2023-04-16T04:34:01;6.77;;;4.83;;
3341;SDS011;1684;50.748;6.154;2023-04-16T04:36:29;12.57;;;6.00;;
3341;SDS011;1684;50.748;6.154;2023-04-16T04:38:57;7.07;;;4.80;;
3341;SDS011;1684;50.748;6.154;2023-04-16T04:41:26;6.33;;;4.30;;
3341;SDS011;1684;50.748;6.154;2023-04-16T04:43:54;6.07;;;4.10;;
3341;SDS011;1684;50.748;6.154;2023-04-16T04:46:22;6.00;;;3.80;;
3341;SDS011;1684;50.748;6.154;2023-04-16T04:48:52;7.10;;;4.73;;
3341;SDS011;1684;50.748;6.154;2023-04-16T04:51:20;7.37;;;4.57;;
3341;SDS011;1684;50.748;6.154;2023-04-16T04:53:48;3.30;;;1.97;;
3341;SDS011;1684;50.748;6.154;2023-04-16T04:56:17;2.90;;;1.67;;
3341;SDS011;1684;50.748;6.154;2023-04-16T04:58:45;5.97;;;5.27;;
3341;SDS011;1684;50.748;6.154;2023-04-16T05:01:14;7.03;;;4.33;;
3341;SDS011;1684;50.748;6.154;2023-04-16T05:03:42;5.97;;;4.23;;
3341;SDS011;1684;50.748;6.154;2023-04-16T05:06:12;6.40;;;4.40;;
3341;SDS011;1684;50.748;6.154;2023-04-16T05:08:41;4.90;;;3.73;;
3341;SDS011;1684;50.748;6.154;2023-04-16T05:11:09;5.80;;;4.80;;
3341;SDS011;1684;50.748;6.154;2023-04-16T05:13:37;6.27;;;4.50;;
3341;SDS011;1684;50.748;6.154;2023-04-16T05:16:06;6.80;;;4.97;;
3341;SDS011;1684;50.748;6.154;2023-04-16T05:18:34;7.47;;;4.93;;
3341;SDS011;1684;50.748;6.154;2023-04-16T05:21:03;5.83;;;4.13;;
3341;SDS011;1684;50.748;6.154;2023-04-16T05:23:32;4.60;;;3.57;;
3341;SDS011;1684;50.748;6.154;2023-04-16T05:26:01;6.63;;;4.83;;
3341;SDS011;1684;50.748;6.154;2023-04-16T05:28:29;5.40;;;3.43;;
3341;SDS011;1684;50.748;6.154;2023-04-16T05:30:58;5.90;;;3.87;;
3341;SDS011;1684;50.748;6.154;2023-04-16T05:33:26;6.40;;;3.70;;
3341;SDS011;1684;50.748;6.154;2023-04-16T05:35:54;8.03;;;4.47;;
3341;SDS011;1684;50.748;6.154;2023-04-16T05:38:22;6.60;;;4.77;;
3341;SDS011;1684;50.748;6.154;2023-04-16T05:40:52;3.87;;;2.90;;
3341;SDS011;1684;50.748;6.154;2023-04-16T05:43:20;4.70;;;3.33;;
3341;SDS011;1684;50.748;6.154;2023-04-16T05:45:48;6.20;;;4.83;;
3341;SDS011;1684;50.748;6.154;2023-04-16T05:48:17;4.53;;;2.20;;
3341;SDS011;1684;50.748;6.154;2023-04-16T05:50:46;5.80;;;4.80;;
3341;SDS011;1684;50.748;6.154;2023-04-16T05:53:14;5.53;;;4.00;;
3341;SDS011;1684;50.748;6.154;2023-04-16T05:55:44;4.53;;;3.83;;
3341;SDS011;1684;50.748;6.154;2023-04-16T05:58:14;5.30;;;4.20;;
3341;SDS011;1684;50.748;6.154;2023-04-16T06:00:42;7.23;;;5.23;;
3341;SDS011;1684;50.748;6.154;2023-04-16T06:03:10;3.63;;;2.70;;
3341;SDS011;1684;50.748;6.154;2023-04-16T06:05:39;7.40;;;4.80;;
3341;SDS011;1684;50.748;6.154;2023-04-16T06:08:09;5.53;;;4.00;;
3341;SDS011;1684;50.748;6.154;2023-04-16T06:10:38;5.30;;;4.20;;
3341;SDS011;1684;50.748;6.154;2023-04-16T06:13:06;6.43;;;3.67;;
3341;SDS011;1684;50.748;6.154;2023-04-16T06:15:36;7.20;;;4.80;;
3341;SDS011;1684;50.748;6.154;2023-04-16T06:18:04;6.20;;;4.37;;
3341;SDS011;1684;50.748;6.154;2023-04-16T06:20:32;5.63;;;2.80;;
3341;SDS011;1684;50.748;6.154;2023-04-16T06:23:00;6.03;;;4.00;;
3341;SDS011;1684;50.748;6.154;2023-04-16T06:25:29;8.20;;;3.60;;
3341;SDS011;1684;50.748;6.154;2023-04-16T06:27:57;5.73;;;3.87;;
3341;SDS011;1684;50.748;6.154;2023-04-16T06:30:25;5.50;;;4.00;;
3341;SDS011;1684;50.748;6.154;2023-04-16T06:32:55;6.07;;;4.27;;
3341;SDS011;1684;50.748;6.154;2023-04-16T06:35:23;4.50;;;3.33;;
3341;SDS011;1684;50.748;6.154;2023-04-16T06:37:51;5.73;;;3.90;;
3341;SDS011;1684;50.748;6.154;2023-04-16T06:40:20;6.57;;;4.63;;
3341;SDS011;1684;50.748;6.154;2023-04-16T06:42:48;6.73;;;4.07;;
3341;SDS011;1684;50.748;6.154;2023-04-16T06:45:16;6.00;;;3.57;;
3341;SDS011;1684;50.748;6.154;2023-04-16T06:47:45;6.87;;;3.30;;
3341;SDS011;1684;50.748;6.154;2023-04-16T06:50:14;5.43;;;3.30;;
3341;SDS011;1684;50.748;6.154;2023-04-16T06:52:43;4.60;;;2.97;;
3341;SDS011;1684;50.748;6.154;2023-04-16T06:55:11;4.90;;;3.03;;
3341;SDS011;1684;50.748;6.154;2023-04-16T06:57:39;5.20;;;3.80;;
3341;SDS011;1684;50.748;6.154;2023-04-16T07:00:08;5.30;;;3.93;;
3341;SDS011;1684;50.748;6.154;2023-04-16T07:02:36;4.60;;;2.80;;
3341;SDS011;1684;50.748;6.154;2023-04-16T07:05:05;5.20;;;3.50;;
3341;SDS011;1684;50.748;6.154;2023-04-16T07:07:35;4.63;;;3.17;;
3341;SDS011;1684;50.748;6.154;2023-04-16T07:10:04;5.47;;;3.43;;
3341;SDS011;1684;50.748;6.154;2023-04-16T07:12:32;6.07;;;3.53;;
3341;SDS011;1684;50.748;6.154;2023-04-16T07:15:00;6.10;;;3.80;;
3341;SDS011;1684;50.748;6.154;2023-04-16T07:17:29;6.23;;;3.67;;
3341;SDS011;1684;50.748;6.154;2023-04-16T07:19:57;7.27;;;3.87;;
3341;SDS011;1684;50.748;6.154;2023-04-16T07:22:25;4.30;;;3.10;;
3341;SDS011;1684;50.748;6.154;2023-04-16T07:24:55;3.30;;;2.43;;
3341;SDS011;1684;50.748;6.154;2023-04-16T07:27:23;6.13;;;3.10;;
3341;SDS011;1684;50.748;6.154;2023-04-16T07:29:52;6.73;;;2.90;;
3341;SDS011;1684;50.748;6.154;2023-04-16T07:32:21;6.20;;;3.70;;
3341;SDS011;1684;50.748;6.154;2023-04-16T07:34:49;5.20;;;3.20;;
3341;SDS011;1684;50.748;6.154;2023-04-16T07:37:17;4.40;;;3.17;;
3341;SDS011;1684;50.748;6.154;2023-04-16T07:39:46;6.50;;;3.47;;
3341;SDS011;1684;50.748;6.154;2023-04-16T07:42:15;6.40;;;3.10;;
3341;SDS011;1684;50.748;6.154;2023-04-16T07:44:44;7.50;;;3.93;;
3341;SDS011;1684;50.748;6.154;2023-04-16T07:47:12;4.90;;;3.47;;
3341;SDS011;1684;50.748;6.154;2023-04-16T07:49:40;4.70;;;2.83;;
3341;SDS011;1684;50.748;6.154;2023-04-16T07:52:09;5.77;;;3.83;;
3341;SDS011;1684;50.748;6.154;2023-04-16T07:54:37;6.40;;;3.07;;
3341;SDS011;1684;50.748;6.154;2023-04-16T07:57:05;4.37;;;2.87;;
3341;SDS011;1684;50.748;6.154;2023-04-16T07:59:35;6.13;;;4.13;;
3341;SDS011;1684;50.748;6.154;2023-04-16T08:02:03;3.57;;;1.57;;
3341;SDS011;1684;50.748;6.154;2023-04-16T08:04:32;6.63;;;4.37;;
3341;SDS011;1684;50.748;6.154;2023-04-16T08:07:01;2.57;;;1.47;;
3341;SDS011;1684;50.748;6.154;2023-04-16T08:09:29;4.30;;;2.60;;
3341;SDS011;1684;50.748;6.154;2023-04-16T08:11:58;3.13;;;1.93;;
3341;SDS011;1684;50.748;6.154;2023-04-16T08:14:27;6.30;;;3.07;;
3341;SDS011;1684;50.748;6.154;2023-04-16T08:16:57;5.97;;;3.90;;
3341;SDS011;1684;50.748;6.154;2023-04-16T08:19:25;7.30;;;4.10;;
3341;SDS011;1684;50.748;6.154;2023-04-16T08:21:54;3.07;;;1.53;;
3341;SDS011;1684;50.748;6.154;2023-04-16T08:24:22;6.97;;;3.97;;
3341;SDS011;1684;50.748;6.154;2023-04-16T08:26:51;6.37;;;3.97;;
3341;SDS011;1684;50.748;6.154;2023-04-16T08:29:22;4.73;;;3.53;;
3341;SDS011;1684;50.748;6.154;2023-04-16T08:31:51;4.40;;;2.30;;
3341;SDS011;1684;50.748;6.154;2023-04-16T08:34:21;6.87;;;4.20;;
3341;SDS011;1684;50.748;6.154;2023-04-16T08:36:49;7.83;;;4.43;;
3341;SDS011;1684;50.748;6.154;2023-04-16T08:39:18;6.03;;;2.80;;
3341;SDS011;1684;50.748;6.154;2023-04-16T08:41:46;8.50;;;4.90;;
3341;SDS011;1684;50.748;6.154;2023-04-16T08:44:16;5.57;;;3.90;;
3341;SDS011;1684;50.748;6.154;2023-04-16T08:46:46;7.60;;;3.63;;
3341;SDS011;1684;50.748;6.154;2023-04-16T08:49:15;6.67;;;3.90;;
3341;SDS011;1684;50.748;6.154;2023-04-16T08:51:48;6.80;;;4.60;;
3341;SDS011;1684;50.748;6.154;2023-04-16T08:54:20;5.77;;;2.20;;
3341;SDS011;1684;50.748;6.154;2023-04-16T08:56:48;7.00;;;3.47;;
3341;SDS011;1684;50.748;6.154;2023-04-16T08:59:17;7.07;;;2.77;;
3341;SDS011;1684;50.748;6.154;2023-04-16T09:01:46;4.40;;;2.90;;
3341;SDS011;1684;50.748;6.154;2023-04-16T09:04:15;4.73;;;2.60;;
3341;SDS011;1684;50.748;6.154;2023-04-16T09:06:43;10.97;;;3.63;;
3341;SDS011;1684;50.748;6.154;2023-04-16T09:09:14;6.67;;;3.87;;
3341;SDS011;1684;50.748;6.154;2023-04-16T09:11:43;7.70;;;4.03;;
3341;SDS011;1684;50.748;6.154;2023-04-16T09:14:12;6.30;;;3.70;;
3341;SDS011;1684;50.748;6.154;2023-04-16T09:16:40;5.33;;;3.77;;
3341;SDS011;1684;50.748;6.154;2023-04-16T09:19:09;6.90;;;3.90;;
3341;SDS011;1684;50.748;6.154;2023-04-16T09:21:37;3.40;;;2.00;;
3341;SDS011;1684;50.748;6.154;2023-04-16T09:24:07;6.00;;;3.03;;
3341;SDS011;1684;50.748;6.154;2023-04-16T09:26:36;4.47;;;2.83;;
3341;SDS011;1684;50.748;6.154;2023-04-16T09:29:05;6.10;;;3.40;;
3341;SDS011;1684;50.748;6.154;2023-04-16T09:31:35;6.47;;;4.10;;
3341;SDS011;1684;50.748;6.154;2023-04-16T09:34:04;6.63;;;3.47;;
3341;SDS011;1684;50.748;6.154;2023-04-16T09:36:33;6.17;;;3.87;;
3341;SDS011;1684;50.748;6.154;2023-04-16T09:39:01;7.90;;;3.90;;
3341;SDS011;1684;50.748;6.154;2023-04-16T09:41:30;6.57;;;3.70;;
3341;SDS011;1684;50.748;6.154;2023-04-16T09:44:03;5.67;;;2.53;;
3341;SDS011;1684;50.748;6.154;2023-04-16T09:46:32;5.20;;;3.53;;
3341;SDS011;1684;50.748;6.154;2023-04-16T09:49:03;8.30;;;3.60;;
3341;SDS011;1684;50.748;6.154;2023-04-16T09:51:35;6.27;;;3.20;;
3341;SDS011;1684;50.748;6.154;2023-04-16T09:54:03;7.03;;;3.33;;
3341;SDS011;1684;50.748;6.154;2023-04-16T09:56:32;3.43;;;1.53;;
3341;SDS011;1684;50.748;6.154;2023-04-16T09:59:00;6.80;;;3.63;;
3341;SDS011;1684;50.748;6.154;2023-04-16T10:01:30;10.00;;;4.37;;
3341;SDS011;1684;50.748;6.154;2023-04-16T10:04:03;6.43;;;4.17;;
3341;SDS011;1684;50.748;6.154;2023-04-16T10:06:33;9.67;;;4.70;;
3341;SDS011;1684;50.748;6.154;2023-04-16T10:09:02;4.17;;;2.10;;
3341;SDS011;1684;50.748;6.154;2023-04-16T10:11:33;7.87;;;3.90;;
3341;SDS011;1684;50.748;6.154;2023-04-16T10:14:02;10.27;;;5.23;;
3341;SDS011;1684;50.748;6.154;2023-04-16T10:16:32;6.30;;;4.00;;
3341;SDS011;1684;50.748;6.154;2023-04-16T10:19:00;7.90;;;4.87;;
3341;SDS011;1684;50.748;6.154;2023-04-16T10:21:29;8.43;;;5.47;;
3341;SDS011;1684;50.748;6.154;2023-04-16T10:23:59;9.10;;;4.17;;
3341;SDS011;1684;50.748;6.154;2023-04-16T10:26:28;8.50;;;5.00;;
3341;SDS011;1684;50.748;6.154;2023-04-16T10:28:57;8.57;;;6.10;;
3341;SDS011;1684;50.748;6.154;2023-04-16T10:31:25;15.63;;;7.90;;
3341;SDS011;1684;50.748;6.154;2023-04-16T10:33:55;10.40;;;6.97;;
3341;SDS011;1684;50.748;6.154;2023-04-16T10:36:25;12.30;;;7.60;;
3341;SDS011;1684;50.748;6.154;2023-04-16T10:38:56;9.40;;;6.27;;
3341;SDS011;1684;50.748;6.154;2023-04-16T10:41:24;14.67;;;6.60;;
3341;SDS011;1684;50.748;6.154;2023-04-16T10:44:02;10.63;;;5.03;;
3341;SDS011;1684;50.748;6.154;2023-04-16T10:46:35;12.70;;;7.20;;
3341;SDS011;1684;50.748;6.154;2023-04-16T10:49:12;13.17;;;6.97;;
3341;SDS011;1684;50.748;6.154;2023-04-16T10:51:51;9.43;;;6.83;;
3341;SDS011;1684;50.748;6.154;2023-04-16T10:54:20;19.50;;;9.17;;
3341;SDS011;1684;50.748;6.154;2023-04-16T10:56:50;13.70;;;7.53;;
3341;SDS011;1684;50.748;6.154;2023-04-16T10:59:18;21.30;;;9.93;;
3341;SDS011;1684;50.748;6.154;2023-04-16T11:01:48;13.60;;;8.80;;
3341;SDS011;1684;50.748;6.154;2023-04-16T11:04:28;17.93;;;8.07;;
3341;SDS011;1684;50.748;6.154;2023-04-16T11:07:00;18.57;;;9.13;;
3341;SDS011;1684;50.748;6.154;2023-04-16T11:09:43;11.50;;;7.13;;
3341;SDS011;1684;50.748;6.154;2023-04-16T11:12:13;19.50;;;10.17;;
3341;SDS011;1684;50.748;6.154;2023-04-16T11:14:41;20.17;;;8.57;;
3341;SDS011;1684;50.748;6.154;2023-04-16T11:17:10;18.90;;;10.43;;
3341;SDS011;1684;50.748;6.154;2023-04-16T11:19:43;15.60;;;7.87;;
3341;SDS011;1684;50.748;6.154;2023-04-16T11:22:12;18.27;;;10.10;;
3341;SDS011;1684;50.748;6.154;2023-04-16T11:24:44;19.03;;;10.00;;
3341;SDS011;1684;50.748;6.154;2023-04-16T11:27:12;18.10;;;9.43;;
3341;SDS011;1684;50.748;6.154;2023-04-16T11:29:41;26.73;;;11.80;;
3341;SDS011;1684;50.748;6.154;2023-04-16T11:32:19;19.67;;;12.00;;
3341;SDS011;1684;50.748;6.154;2023-04-16T11:34:49;20.40;;;12.77;;
3341;SDS011;1684;50.748;6.154;2023-04-16T11:37:18;20.50;;;11.87;;
3341;SDS011;1684;50.748;6.154;2023-04-16T11:39:48;16.63;;;10.83;;
3341;SDS011;1684;50.748;6.154;2023-04-16T11:42:19;22.67;;;12.50;;
3341;SDS011;1684;50.748;6.154;2023-04-16T11:44:52;20.50;;;10.87;;
3341;SDS011;1684;50.748;6.154;2023-04-16T11:47:21;24.20;;;11.90;;
3341;SDS011;1684;50.748;6.154;2023-04-16T11:49:50;17.00;;;10.50;;
3341;SDS011;1684;50.748;6.154;2023-04-16T11:52:25;19.53;;;11.87;;
3341;SDS011;1684;50.748;6.154;2023-04-16T11:54:53;17.90;;;11.50;;
3341;SDS011;1684;50.748;6.154;2023-04-16T11:57:25;20.37;;;10.10;;
3341;SDS011;1684;50.748;6.154;2023-04-16T11:59:54;20.00;;;12.37;;
3341;SDS011;1684;50.748;6.154;2023-04-16T12:02:38;26.03;;;14.63;;
3341;SDS011;1684;50.748;6.154;2023-04-16T12:07:54;21.10;;;13.37;;
3341;SDS011;1684;50.748;6.154;2023-04-16T12:10:23;24.37;;;14.37;;
3341;SDS011;1684;50.748;6.154;2023-04-16T12:12:52;23.10;;;14.20;;
3341;SDS011;1684;50.748;6.154;2023-04-16T12:15:22;28.67;;;15.20;;
3341;SDS011;1684;50.748;6.154;2023-04-16T12:17:50;26.40;;;15.93;;
3341;SDS011;1684;50.748;6.154;2023-04-16T12:20:37;25.23;;;14.20;;
3341;SDS011;1684;50.748;6.154;2023-04-16T12:23:08;30.97;;;15.90;;
3341;SDS011;1684;50.748;6.154;2023-04-16T12:25:36;30.70;;;17.80;;
3341;SDS011;1684;50.748;6.154;2023-04-16T12:28:05;27.50;;;16.40;;
3341;SDS011;1684;50.748;6.154;2023-04-16T12:30:47;31.60;;;16.00;;
3341;SDS011;1684;50.748;6.154;2023-04-16T12:33:17;27.53;;;14.97;;
3341;SDS011;1684;50.748;6.154;2023-04-16T12:35:46;33.27;;;15.67;;
3341;SDS011;1684;50.748;6.154;2023-04-16T12:38:16;28.50;;;17.13;;
3341;SDS011;1684;50.748;6.154;2023-04-16T12:40:44;27.33;;;16.07;;
3341;SDS011;1684;50.748;6.154;2023-04-16T12:43:12;37.45;;;23.83;;
3341;SDS011;1684;50.748;6.154;2023-04-16T12:45:41;32.20;;;21.07;;
3341;SDS011;1684;50.748;6.154;2023-04-16T12:48:09;33.43;;;17.63;;
3341;SDS011;1684;50.748;6.154;2023-04-16T12:50:38;34.00;;;16.97;;
3341;SDS011;1684;50.748;6.154;2023-04-16T12:53:09;42.00;;;18.13;;
3341;SDS011;1684;50.748;6.154;2023-04-16T12:55:38;38.63;;;18.60;;
3341;SDS011;1684;50.748;6.154;2023-04-16T12:58:07;34.80;;;19.03;;
3341;SDS011;1684;50.748;6.154;2023-04-16T13:00:38;40.43;;;19.07;;
3341;SDS011;1684;50.748;6.154;2023-04-16T13:03:06;37.40;;;17.33;;
3341;SDS011;1684;50.748;6.154;2023-04-16T13:05:35;33.93;;;18.20;;
3341;SDS011;1684;50.748;6.154;2023-04-16T13:08:03;26.97;;;16.10;;
3341;SDS011;1684;50.748;6.154;2023-04-16T13:10:31;33.77;;;17.03;;
3341;SDS011;1684;50.748;6.154;2023-04-16T13:13:01;29.20;;;16.77;;
3341;SDS011;1684;50.748;6.154;2023-04-16T13:15:29;32.60;;;19.53;;
3341;SDS011;1684;50.748;6.154;2023-04-16T13:17:57;34.60;;;19.30;;
3341;SDS011;1684;50.748;6.154;2023-04-16T13:20:26;37.10;;;19.47;;
3341;SDS011;1684;50.748;6.154;2023-04-16T13:22:54;36.83;;;20.27;;
3341;SDS011;1684;50.748;6.154;2023-04-16T13:25:22;29.90;;;17.90;;
3341;SDS011;1684;50.748;6.154;2023-04-16T13:27:50;36.10;;;19.37;;
3341;SDS011;1684;50.748;6.154;2023-04-16T13:30:20;31.10;;;17.00;;
3341;SDS011;1684;50.748;6.154;2023-04-16T13:32:48;32.70;;;18.43;;
3341;SDS011;1684;50.748;6.154;2023-04-16T13:35:18;30.60;;;18.23;;
3341;SDS011;1684;50.748;6.154;2023-04-16T13:37:46;33.13;;;18.37;;
3341;SDS011;1684;50.748;6.154;2023-04-16T13:40:14;28.47;;;19.37;;
3341;SDS011;1684;50.748;6.154;2023-04-16T13:42:43;34.60;;;21.50;;
3341;SDS011;1684;50.748;6.154;2023-04-16T13:45:11;32.97;;;17.90;;
3341;SDS011;1684;50.748;6.154;2023-04-16T13:47:41;25.97;;;13.07;;
3341;SDS011;1684;50.748;6.154;2023-04-16T13:50:10;32.30;;;19.13;;
3341;SDS011;1684;50.748;6.154;2023-04-16T13:52:38;30.63;;;16.77;;
3341;SDS011;1684;50.748;6.154;2023-04-16T13:55:06;28.97;;;17.13;;
3341;SDS011;1684;50.748;6.154;2023-04-16T13:57:35;23.23;;;15.37;;
3341;SDS011;1684;50.748;6.154;2023-04-16T14:00:04;28.33;;;16.17;;
3341;SDS011;1684;50.748;6.154;2023-04-16T14:02:33;27.53;;;17.37;;
3341;SDS011;1684;50.748;6.154;2023-04-16T14:05:03;30.07;;;17.20;;
3341;SDS011;1684;50.748;6.154;2023-04-16T14:07:33;28.83;;;17.77;;
3341;SDS011;1684;50.748;6.154;2023-04-16T14:10:02;34.70;;;19.50;;
3341;SDS011;1684;50.748;6.154;2023-04-16T14:12:30;33.87;;;21.00;;
3341;SDS011;1684;50.748;6.154;2023-04-16T14:14:58;24.37;;;16.10;;
3341;SDS011;1684;50.748;6.154;2023-04-16T14:17:29;38.77;;;19.50;;
3341;SDS011;1684;50.748;6.154;2023-04-16T14:19:57;26.37;;;14.37;;
3341;SDS011;1684;50.748;6.154;2023-04-16T14:22:27;29.73;;;17.63;;
3341;SDS011;1684;50.748;6.154;2023-04-16T14:24:55;27.80;;;15.67;;
3341;SDS011;1684;50.748;6.154;2023-04-16T14:27:24;28.70;;;15.10;;
3341;SDS011;1684;50.748;6.154;2023-04-16T14:29:52;20.97;;;12.63;;
3341;SDS011;1684;50.748;6.154;2023-04-16T14:32:21;28.53;;;16.87;;
3341;SDS011;1684;50.748;6.154;2023-04-16T14:34:49;25.70;;;17.43;;
3341;SDS011;1684;50.748;6.154;2023-04-16T14:37:17;27.73;;;16.87;;
3341;SDS011;1684;50.748;6.154;2023-04-16T14:39:47;29.50;;;16.57;;
3341;SDS011;1684;50.748;6.154;2023-04-16T14:42:15;32.17;;;17.77;;
3341;SDS011;1684;50.748;6.154;2023-04-16T14:44:43;26.13;;;16.50;;
3341;SDS011;1684;50.748;6.154;2023-04-16T14:47:12;30.40;;;15.30;;
3341;SDS011;1684;50.748;6.154;2023-04-16T14:49:40;29.53;;;17.57;;
3341;SDS011;1684;50.748;6.154;2023-04-16T14:52:08;29.20;;;16.90;;
3341;SDS011;1684;50.748;6.154;2023-04-16T14:54:37;30.27;;;18.20;;
3341;SDS011;1684;50.748;6.154;2023-04-16T14:57:06;32.53;;;17.33;;
3341;SDS011;1684;50.748;6.154;2023-04-16T14:59:34;36.30;;;20.27;;
3341;SDS011;1684;50.748;6.154;2023-04-16T15:02:03;30.10;;;17.97;;
3341;SDS011;1684;50.748;6.154;2023-04-16T15:04:32;29.80;;;18.47;;
3341;SDS011;1684;50.748;6.154;2023-04-16T15:07:00;30.33;;;18.70;;
3341;SDS011;1684;50.748;6.154;2023-04-16T15:09:28;28.00;;;15.93;;
3341;SDS011;1684;50.748;6.154;2023-04-16T15:11:57;33.63;;;17.90;;
3341;SDS011;1684;50.748;6.154;2023-04-16T15:14:27;29.77;;;18.47;;
3341;SDS011;1684;50.748;6.154;2023-04-16T15:16:56;21.80;;;13.20;;
3341;SDS011;1684;50.748;6.154;2023-04-16T15:19:24;38.40;;;19.40;;
3341;SDS011;1684;50.748;6.154;2023-04-16T15:21:52;34.03;;;19.70;;